Siren, Wisconsin
Current Conditions -  °F | °C
As of 10:15 AM on Thursday 29 Jan 2015 (Local Time) from KRZN Reporting Station
Overcast Overcast  
Wind Chill: 20°   Ceiling: 2500
Heat Index: 31°   Visibility: 10mi
Dew Point: 22°   Wind: 14mph
Humidity: 70%   Direction: 320°NW
Pressure: 30.14"   Gusts: 20mph
Location:  45.79°N, 92.38°W
Report Text: KRZN 291615Z AUTO 32012G17KT 10SM BKN025 OVC030 M01/M06 A3014 RMK AO2 T10081057
Loading
Personal Weather Stations






























Interactive Weather Map New forecast layout! Learn more

10-Day Weather Forecast

Advertisements
Track Severe Weather on mobile